Time;durP1;ratioP1;P1;durP2;ratioP2;P2;SDS_P1;SDS_P2;PMS_P1;PMS_P2;Temp;Humidity;BMP_temperature;BMP_pressure;BME280_temperature;BME280_humidity;BME280_pressure;Samples;Min_cycle;Max_cycle;Signal;HPM_P1;HPM_P2
2022/01/20 00:00:29;;;;;;;3.70;0.68;;;3.50;94.00;;;;;;6198459;22;20026;-76
2022/01/20 00:02:58;;;;;;;1.73;0.50;;;3.40;93.90;;;;;;6199349;22;20035;-76
2022/01/20 00:06:18;;;;;;;2.63;0.73;;;3.40;94.20;;;;;;6197241;22;20125;-76
2022/01/20 00:08:18;;;;;;;4.30;0.70;;;3.50;94.00;;;;;;6250289;22;20008;-76
2022/01/20 00:26:47;;;;;;;2.88;0.90;;;3.60;93.90;;;;;;6289684;22;20027;-76
2022/01/20 00:29:21;;;;;;;1.67;0.53;;;3.70;93.80;;;;;;6284344;22;20086;-76
2022/01/20 00:32:03;;;;;;;4.45;0.80;;;3.70;93.80;;;;;;6261474;22;20429;-76
2022/01/20 00:34:52;;;;;;;4.80;0.82;;;3.60;93.70;;;;;;6287566;22;20006;-76
2022/01/20 00:37:16;;;;;;;2.25;0.68;;;3.70;94.00;;;;;;6313502;22;20009;-76
2022/01/20 00:39:43;;;;;;;3.30;0.60;;;3.70;93.80;;;;;;6258091;22;20003;-76
2022/01/20 00:42:09;;;;;;;1.38;0.60;;;3.70;93.70;;;;;;6257891;22;20049;-76
2022/01/20 00:44:35;;;;;;;1.58;0.47;;;3.80;93.80;;;;;;6258262;22;20038;-76
2022/01/20 00:47:01;;;;;;;2.70;0.52;;;3.80;93.80;;;;;;6258524;22;20007;-76
2022/01/20 00:49:27;;;;;;;4.22;0.70;;;3.70;93.70;;;;;;6257862;22;20011;-76
2022/01/20 00:51:53;;;;;;;2.17;0.75;;;3.80;93.70;;;;;;6257809;22;20010;-76
2022/01/20 00:54:20;;;;;;;2.38;0.35;;;3.80;93.60;;;;;;6257816;22;20010;-76
2022/01/20 00:56:46;;;;;;;2.78;0.52;;;3.80;93.70;;;;;;6257860;22;20014;-76
2022/01/20 00:59:12;;;;;;;1.98;0.60;;;3.70;93.70;;;;;;6282879;22;20010;-77
2022/01/20 01:01:38;;;;;;;0.73;0.40;;;3.80;93.70;;;;;;6283246;22;20078;-76
2022/01/20 01:04:04;;;;;;;2.35;0.60;;;3.70;93.70;;;;;;6282961;22;20034;-76
2022/01/20 01:09:16;;;;;;;4.32;0.77;;;3.70;93.70;;;;;;6270030;22;20025;-76
2022/01/20 01:11:45;;;;;;;3.47;0.52;;;3.70;93.70;;;;;;6277951;22;20007;-76
2022/01/20 01:14:11;;;;;;;3.28;1.00;;;3.70;93.70;;;;;;6308783;22;20002;-76
2022/01/20 01:20:02;;;;;;;1.95;0.40;;;3.80;93.70;;;;;;6258366;22;20003;-76
2022/01/20 01:22:29;;;;;;;2.40;0.65;;;3.90;93.60;;;;;;6289738;22;20014;-76
2022/01/20 01:24:55;;;;;;;1.60;0.60;;;3.90;93.60;;;;;;6313313;22;20003;-76
2022/01/20 01:27:23;;;;;;;3.95;0.80;;;3.90;93.60;;;;;;6257938;22;20147;-77
2022/01/20 01:32:47;;;;;;;1.20;0.40;;;4.00;93.50;;;;;;6269992;22;20387;-77
2022/01/20 01:35:15;;;;;;;1.60;0.45;;;4.00;93.50;;;;;;6262995;22;20074;-76
2022/01/20 01:40:29;;;;;;;3.70;0.65;;;4.00;93.50;;;;;;6271948;22;20346;-76
2022/01/20 01:42:56;;;;;;;2.50;0.80;;;4.10;93.50;;;;;;6283160;22;20427;-76
2022/01/20 01:45:28;;;;;;;3.13;0.70;;;4.00;93.50;;;;;;6258795;22;20010;-76
2022/01/20 01:47:55;;;;;;;2.90;0.60;;;4.10;93.50;;;;;;6254728;22;20034;-76
2022/01/20 01:50:22;;;;;;;1.52;0.50;;;4.20;93.50;;;;;;6279714;22;20011;-76
2022/01/20 01:52:48;;;;;;;4.00;0.50;;;4.20;93.40;;;;;;6258022;22;20003;-76
2022/01/20 01:55:15;;;;;;;3.60;0.43;;;4.20;93.40;;;;;;6255397;22;20003;-76
2022/01/20 01:57:41;;;;;;;2.63;0.50;;;4.20;93.70;;;;;;6284668;22;20009;-76
2022/01/20 02:00:09;;;;;;;2.92;0.60;;;4.20;93.40;;;;;;6256790;22;20041;-76
2022/01/20 02:02:36;;;;;;;3.03;0.70;;;4.30;93.40;;;;;;6284109;22;20436;-77
2022/01/20 02:05:05;;;;;;;3.40;0.75;;;4.30;93.40;;;;;;6306796;22;20011;-76
2022/01/20 02:08:00;;;;;;;2.00;0.60;;;4.30;93.40;;;;;;6311236;22;20007;-77
2022/01/20 02:18:52;;;;;;;3.25;0.52;;;4.30;93.30;;;;;;6310425;22;20003;-76
2022/01/20 02:21:05;;;;;;;1.77;0.50;;;4.40;93.30;;;;;;6337158;22;20007;-77
2022/01/20 02:23:32;;;;;;;1.25;0.60;;;4.40;93.30;;;;;;6309074;22;20030;-76
2022/01/20 02:25:58;;;;;;;2.42;0.40;;;4.40;93.30;;;;;;6337897;22;20011;-76
2022/01/20 02:28:23;;;;;;;4.63;0.68;;;4.50;93.30;;;;;;6337428;22;20010;-76
2022/01/20 02:30:49;;;;;;;2.58;0.75;;;4.40;93.20;;;;;;6309959;22;20014;-76
2022/01/20 02:33:19;;;;;;;6.97;0.80;;;4.40;93.30;;;;;;6309835;22;20003;-76
2022/01/20 02:35:49;;;;;;;1.17;0.35;;;4.40;93.20;;;;;;6284827;22;20010;-76
2022/01/20 02:38:24;;;;;;;2.33;0.57;;;4.50;93.20;;;;;;6259706;22;20006;-76
2022/01/20 02:46:11;;;;;;;0.77;0.45;;;4.40;93.20;;;;;;6288747;22;20454;-76
2022/01/20 02:48:37;;;;;;;2.20;0.70;;;4.50;93.30;;;;;;6284152;22;20076;-77
2022/01/20 02:51:03;;;;;;;0.98;0.32;;;4.50;93.30;;;;;;6258436;22;20041;-76
2022/01/20 02:53:29;;;;;;;2.97;0.50;;;4.60;93.30;;;;;;6283898;22;20081;-76
2022/01/20 02:55:55;;;;;;;2.80;0.55;;;4.50;93.30;;;;;;6253418;22;20041;-76
2022/01/20 02:58:21;;;;;;;2.90;0.68;;;4.50;93.20;;;;;;6257119;22;20010;-76
2022/01/20 03:00:48;;;;;;;1.60;0.55;;;4.60;93.30;;;;;;6279310;22;20058;-76
2022/01/20 03:03:16;;;;;;;1.77;0.43;;;4.40;93.20;;;;;;6258171;22;20431;-76
2022/01/20 03:05:41;;;;;;;1.52;0.30;;;4.30;93.30;;;;;;6258786;22;20329;-76
2022/01/20 03:08:08;;;;;;;3.20;0.50;;;4.30;93.30;;;;;;6258317;22;20085;-76
2022/01/20 03:10:34;;;;;;;0.63;0.32;;;4.30;93.40;;;;;;6310066;22;20442;-76
2022/01/20 03:13:00;;;;;;;1.05;0.30;;;4.30;93.40;;;;;;6257864;22;20013;-76
2022/01/20 03:15:26;;;;;;;2.40;0.50;;;4.40;93.40;;;;;;6283584;22;20011;-76
2022/01/20 03:17:52;;;;;;;1.40;0.50;;;4.40;93.40;;;;;;6258333;22;20006;-76
2022/01/20 03:20:18;;;;;;;1.33;0.35;;;4.50;93.30;;;;;;6283516;22;20497;-77
2022/01/20 03:22:43;;;;;;;2.47;0.68;;;4.50;93.30;;;;;;6258289;22;20025;-76
2022/01/20 03:25:11;;;;;;;2.25;0.50;;;4.50;93.30;;;;;;6254645;22;19999;-76
2022/01/20 03:27:38;;;;;;;3.78;0.68;;;4.50;93.20;;;;;;6258634;22;20015;-76
2022/01/20 03:30:05;;;;;;;3.40;0.55;;;4.50;93.20;;;;;;6283866;22;19999;-76
2022/01/20 03:32:33;;;;;;;4.25;0.82;;;4.60;93.20;;;;;;6257708;22;19999;-77
2022/01/20 03:34:59;;;;;;;4.20;0.50;;;4.50;93.20;;;;;;6284463;22;20073;-76
2022/01/20 03:37:25;;;;;;;2.00;0.57;;;4.50;93.20;;;;;;6257245;22;20032;-76
2022/01/20 03:39:51;;;;;;;3.13;0.70;;;4.70;93.20;;;;;;6258610;22;20393;-76
2022/01/20 03:42:16;;;;;;;2.33;0.60;;;4.60;93.10;;;;;;6257164;22;20014;-77
2022/01/20 03:44:42;;;;;;;1.55;0.40;;;4.60;93.10;;;;;;6283592;22;20062;-77
2022/01/20 03:47:09;;;;;;;1.80;0.50;;;4.60;93.10;;;;;;6279891;22;20017;-77
2022/01/20 03:49:39;;;;;;;2.08;0.60;;;4.60;93.10;;;;;;6258530;22;20002;-76
2022/01/20 03:52:07;;;;;;;1.45;0.43;;;4.70;93.10;;;;;;6260622;22;20003;-77
2022/01/20 03:54:33;;;;;;;3.88;0.70;;;4.60;93.00;;;;;;6281720;22;20003;-76
2022/01/20 03:56:59;;;;;;;1.08;0.50;;;4.70;93.00;;;;;;6283751;22;20014;-76
2022/01/20 03:59:25;;;;;;;2.03;0.52;;;4.70;93.00;;;;;;6258164;22;20132;-76
2022/01/20 04:01:51;;;;;;;2.40;0.40;;;4.70;93.00;;;;;;6258477;22;20518;-77
2022/01/20 04:04:17;;;;;;;1.95;0.60;;;4.60;93.00;;;;;;6255659;22;20329;-77
2022/01/20 04:06:43;;;;;;;1.10;0.38;;;4.60;93.00;;;;;;6257266;22;20022;-77
2022/01/20 04:09:09;;;;;;;1.73;0.50;;;4.70;93.10;;;;;;6283480;22;20007;-76
2022/01/20 04:11:35;;;;;;;2.78;0.43;;;4.70;93.10;;;;;;6257060;22;20086;-76
2022/01/20 04:14:03;;;;;;;2.40;0.43;;;4.70;93.10;;;;;;6257567;22;20015;-76
2022/01/20 04:16:36;;;;;;;1.13;0.28;;;4.70;93.10;;;;;;6280170;22;20082;-76
2022/01/20 04:19:07;;;;;;;1.98;0.50;;;4.70;93.10;;;;;;6256687;22;20017;-77
2022/01/20 04:21:34;;;;;;;1.15;0.30;;;4.70;93.10;;;;;;6255010;22;20007;-77
2022/01/20 04:24:01;;;;;;;1.17;0.25;;;4.70;93.10;;;;;;6283678;22;20083;-76
2022/01/20 04:26:28;;;;;;;2.33;0.38;;;4.60;93.10;;;;;;6257766;22;20020;-77
2022/01/20 04:28:56;;;;;;;1.70;0.60;;;4.70;93.10;;;;;;6256936;22;20003;-76
2022/01/20 04:31:23;;;;;;;2.70;0.73;;;4.70;93.10;;;;;;6258391;22;20026;-76
2022/01/20 04:33:50;;;;;;;1.38;0.30;;;4.70;93.00;;;;;;6257549;22;19994;-77
2022/01/20 04:36:16;;;;;;;3.13;0.70;;;4.80;93.00;;;;;;6256447;22;20510;-76
2022/01/20 04:38:42;;;;;;;3.35;0.65;;;4.80;93.00;;;;;;6257993;22;20464;-76
2022/01/20 04:41:09;;;;;;;6.95;0.80;;;4.80;92.90;;;;;;6257702;22;20022;-76
2022/01/20 04:43:35;;;;;;;1.50;0.65;;;4.80;92.90;;;;;;6257867;22;20055;-76
2022/01/20 04:46:10;;;;;;;2.75;0.50;;;4.80;92.80;;;;;;6258108;22;20030;-76
2022/01/20 04:49:04;;;;;;;1.50;0.35;;;4.80;92.80;;;;;;6258551;22;20079;-77
2022/01/20 04:57:22;;;;;;;1.17;0.30;;;4.80;92.90;;;;;;6308838;22;19907;-76
2022/01/20 04:59:30;;;;;;;1.35;0.35;;;4.70;92.90;;;;;;6291994;22;20068;-76
2022/01/20 05:01:56;;;;;;;1.90;0.35;;;4.70;92.90;;;;;;6258134;22;20148;-77
2022/01/20 05:04:24;;;;;;;1.25;0.40;;;4.60;92.90;;;;;;6257634;22;20017;-76
2022/01/20 05:06:52;;;;;;;0.43;0.22;;;4.70;92.90;;;;;;6258468;22;20045;-77
2022/01/20 05:09:20;;;;;;;0.77;0.40;;;4.80;92.90;;;;;;6260661;22;20027;-77
2022/01/20 05:11:51;;;;;;;1.23;0.38;;;4.70;92.90;;;;;;6260017;22;20330;-76
2022/01/20 05:14:18;;;;;;;1.98;0.30;;;4.70;92.90;;;;;;6258834;22;19999;-77
2022/01/20 05:16:44;;;;;;;1.67;0.30;;;4.80;92.90;;;;;;6259165;22;19999;-77
2022/01/20 05:19:13;;;;;;;1.50;0.40;;;4.70;92.90;;;;;;6256013;22;20009;-76
2022/01/20 05:21:39;;;;;;;1.40;0.30;;;4.70;92.90;;;;;;6257133;22;20366;-77
2022/01/20 05:24:05;;;;;;;1.05;0.30;;;4.60;92.90;;;;;;6259080;22;19995;-77
2022/01/20 05:26:30;;;;;;;1.75;0.20;;;4.60;92.90;;;;;;6256578;22;20031;-77
2022/01/20 05:28:56;;;;;;;3.50;0.60;;;4.60;92.90;;;;;;6258729;22;20343;-76
2022/01/20 05:31:22;;;;;;;0.98;0.17;;;4.60;93.00;;;;;;6259327;22;20031;-77
2022/01/20 05:33:49;;;;;;;1.00;0.47;;;4.60;93.00;;;;;;6258908;22;20003;-77
2022/01/20 05:36:15;;;;;;;2.13;0.40;;;4.60;92.90;;;;;;6258946;22;20006;-76
2022/01/20 05:38:40;;;;;;;3.35;0.40;;;4.70;92.90;;;;;;6258681;22;20426;-77
2022/01/20 05:41:06;;;;;;;5.40;0.63;;;4.60;92.80;;;;;;6259130;22;20374;-76
2022/01/20 05:43:32;;;;;;;2.95;0.60;;;4.60;92.80;;;;;;6258657;22;20038;-76
2022/01/20 05:45:59;;;;;;;2.03;0.50;;;4.60;92.80;;;;;;6259104;22;20510;-77
2022/01/20 05:48:34;;;;;;;1.42;0.60;;;4.60;92.80;;;;;;6284508;22;20015;-76
2022/01/20 05:51:04;;;;;;;0.98;0.55;;;4.60;92.80;;;;;;6263050;22;20022;-77
2022/01/20 05:53:31;;;;;;;3.25;0.63;;;4.60;92.80;;;;;;6259754;22;20007;-77
2022/01/20 05:55:57;;;;;;;1.17;0.55;;;4.60;92.80;;;;;;6259184;22;20003;-77
2022/01/20 05:58:23;;;;;;;3.33;0.55;;;4.60;92.80;;;;;;6259055;22;19999;-77
2022/01/20 06:00:49;;;;;;;1.05;0.25;;;4.50;92.80;;;;;;6259220;22;20495;-77
2022/01/20 06:06:00;;;;;;;3.65;0.77;;;4.50;92.80;;;;;;6292973;22;20381;-76
2022/01/20 06:08:27;;;;;;;2.95;0.68;;;4.50;92.80;;;;;;6258861;22;20003;-77
2022/01/20 06:10:52;;;;;;;1.30;0.80;;;4.40;92.70;;;;;;6258865;22;20006;-76
2022/01/20 06:13:19;;;;;;;1.80;0.65;;;4.50;92.70;;;;;;6258328;22;20103;-76
2022/01/20 06:15:45;;;;;;;2.08;0.50;;;4.50;92.60;;;;;;6258878;22;20026;-77
2022/01/20 06:18:12;;;;;;;3.08;0.68;;;4.50;92.50;;;;;;6258774;22;20082;-76
2022/01/20 06:20:39;;;;;;;4.18;0.65;;;4.50;92.50;;;;;;6258927;22;20068;-76
2022/01/20 06:23:07;;;;;;;3.83;0.57;;;4.50;92.50;;;;;;6284452;22;20005;-77
2022/01/20 06:25:34;;;;;;;1.83;0.32;;;4.40;92.50;;;;;;6257878;22;20014;-77
2022/01/20 06:28:01;;;;;;;3.03;0.63;;;4.50;92.50;;;;;;6281993;22;20419;-76
2022/01/20 06:30:29;;;;;;;3.20;0.60;;;4.50;92.50;;;;;;6284590;22;20071;-76
2022/01/20 06:32:55;;;;;;;2.30;0.70;;;4.50;92.40;;;;;;6309892;22;19999;-76
2022/01/20 06:35:21;;;;;;;2.45;0.65;;;4.50;92.40;;;;;;6310231;22;19999;-76
2022/01/20 06:37:47;;;;;;;2.83;0.68;;;4.40;92.30;;;;;;6258502;22;20089;-76
2022/01/20 06:40:14;;;;;;;0.55;0.28;;;4.50;92.30;;;;;;6254537;22;20011;-76
2022/01/20 06:42:41;;;;;;;1.60;0.32;;;4.40;92.20;;;;;;6258636;22;20014;-76
2022/01/20 06:45:09;;;;;;;0.50;0.20;;;4.40;92.20;;;;;;6257676;22;20442;-76
2022/01/20 06:47:36;;;;;;;3.67;0.65;;;4.40;92.50;;;;;;6282875;22;20022;-76
2022/01/20 06:50:03;;;;;;;3.92;0.88;;;4.30;92.20;;;;;;6255846;22;20426;-76
2022/01/20 06:52:29;;;;;;;3.08;0.65;;;4.30;92.20;;;;;;6280700;22;20002;-76
2022/01/20 06:54:55;;;;;;;2.00;0.60;;;4.20;92.10;;;;;;6258648;22;20323;-76
2022/01/20 06:57:21;;;;;;;2.80;0.55;;;4.30;92.10;;;;;;6258668;22;20397;-77
2022/01/20 06:59:48;;;;;;;1.52;0.40;;;4.40;92.10;;;;;;6257646;22;20021;-76
2022/01/20 07:02:15;;;;;;;2.30;0.40;;;4.30;92.00;;;;;;6284213;22;19999;-76
2022/01/20 07:04:41;;;;;;;3.35;0.70;;;4.20;91.90;;;;;;6255422;22;20009;-76
2022/01/20 07:07:07;;;;;;;2.60;0.50;;;4.30;91.80;;;;;;6259503;22;20022;-76
2022/01/20 07:09:34;;;;;;;1.50;0.57;;;4.20;91.80;;;;;;6258532;22;20048;-76
2022/01/20 07:12:01;;;;;;;0.60;0.47;;;4.10;91.80;;;;;;6258947;22;19999;-76
2022/01/20 07:14:27;;;;;;;2.22;0.60;;;4.20;91.80;;;;;;6258989;22;20435;-76
2022/01/20 07:16:53;;;;;;;2.83;0.60;;;4.10;91.80;;;;;;6258227;22;20007;-76
2022/01/20 07:19:20;;;;;;;2.35;0.63;;;4.20;91.80;;;;;;6257747;22;20053;-76
2022/01/20 07:21:46;;;;;;;2.80;0.50;;;4.00;91.80;;;;;;6258924;22;20027;-76
2022/01/20 07:24:12;;;;;;;2.40;0.22;;;4.00;91.80;;;;;;6283653;22;20453;-76
2022/01/20 07:26:38;;;;;;;3.75;0.68;;;4.00;91.80;;;;;;6283860;22;20031;-76
2022/01/20 07:29:04;;;;;;;1.13;0.40;;;3.90;91.80;;;;;;6282835;22;20014;-77
2022/01/20 07:31:30;;;;;;;3.28;0.30;;;3.90;91.70;;;;;;6283284;22;20010;-76
2022/01/20 07:33:57;;;;;;;1.35;0.43;;;3.90;91.70;;;;;;6258202;22;20060;-76
2022/01/20 07:36:23;;;;;;;3.53;0.50;;;3.80;91.60;;;;;;6258320;22;20460;-76
2022/01/20 07:38:49;;;;;;;1.48;0.40;;;3.80;91.70;;;;;;6258493;22;20002;-76
2022/01/20 07:41:15;;;;;;;1.70;0.32;;;3.80;91.70;;;;;;6258549;22;20444;-76
2022/01/20 07:43:41;;;;;;;1.20;0.25;;;3.60;91.70;;;;;;6279868;22;20057;-76
2022/01/20 07:46:06;;;;;;;0.98;0.30;;;3.70;91.80;;;;;;6261085;22;20022;-77
2022/01/20 07:48:35;;;;;;;1.25;0.43;;;3.70;91.80;;;;;;6289139;22;20141;-79
2022/01/20 07:51:01;;;;;;;0.73;0.30;;;3.70;91.80;;;;;;6216471;23;20549;-77
2022/01/20 08:27:04;;;;;;;0.47;0.10;;;3.80;91.50;;;;;;5922553;24;20028;-81
2022/01/20 08:30:29;;;;;;;1.05;0.20;;;3.70;91.50;;;;;;5840461;24;20022;-82
2022/01/20 08:37:42;;;;;;;1.60;0.25;;;3.80;91.40;;;;;;5777243;24;20035;-87
2022/01/20 08:48:05;;;;;;;1.52;0.43;;;3.90;91.20;;;;;;6017611;23;20329;-83
2022/01/20 09:07:55;;;;;;;0.85;0.30;;;4.10;91.10;;;;;;6247663;22;20024;-79
2022/01/20 09:10:51;;;;;;;2.28;0.30;;;4.20;91.10;;;;;;6272323;22;20049;-80
2022/01/20 09:15:59;;;;;;;0.90;0.20;;;4.20;91.00;;;;;;6223155;22;20348;-79
2022/01/20 09:18:25;;;;;;;2.15;0.40;;;4.20;91.00;;;;;;6247744;22;20019;-79
2022/01/20 09:45:02;;;;;;;1.17;0.20;;;3.40;91.50;;;;;;6300027;22;20493;-80
2022/01/20 09:47:56;;;;;;;3.10;0.35;;;3.40;91.50;;;;;;6301358;22;20035;-80
2022/01/20 09:54:22;;;;;;;0.95;0.22;;;3.40;91.60;;;;;;6165644;23;20414;-84
2022/01/20 09:57:15;;;;;;;0.13;0.13;;;3.40;91.60;;;;;;6157272;23;20024;-80
2022/01/20 09:59:44;;;;;;;0.35;0.15;;;3.40;91.60;;;;;;6110176;23;20013;-79
2022/01/20 10:02:17;;;;;;;2.22;0.43;;;3.50;91.60;;;;;;6162885;23;20064;-80
2022/01/20 10:08:41;;;;;;;1.20;0.47;;;3.70;91.60;;;;;;6062304;23;20376;-80
2022/01/20 10:11:29;;;;;;;0.43;0.28;;;3.80;91.40;;;;;;6006860;23;20023;-79
2022/01/20 10:14:08;;;;;;;1.70;0.40;;;3.80;91.30;;;;;;6037622;23;20007;-80
2022/01/20 10:17:01;;;;;;;2.65;0.55;;;3.80;91.30;;;;;;6063652;23;20021;-80
2022/01/20 10:19:29;;;;;;;1.38;0.45;;;3.80;91.30;;;;;;6042222;23;20038;-77
2022/01/20 10:21:57;;;;;;;2.63;0.57;;;3.90;91.30;;;;;;6064435;23;20388;-79
2022/01/20 10:24:28;;;;;;;2.45;0.88;;;4.00;91.30;;;;;;6041316;23;20019;-81
2022/01/20 10:27:17;;;;;;;1.67;0.52;;;3.90;91.20;;;;;;6046229;23;20018;-82
2022/01/20 10:29:55;;;;;;;4.93;0.80;;;4.10;91.20;;;;;;6073075;23;20015;-80
2022/01/20 10:32:21;;;;;;;2.78;1.00;;;4.20;91.10;;;;;;6072621;23;20018;-80
2022/01/20 10:34:47;;;;;;;3.50;0.82;;;4.30;91.00;;;;;;6082406;23;20065;-82
2022/01/20 10:37:24;;;;;;;2.22;0.70;;;4.40;90.90;;;;;;6076245;23;20011;-79
2022/01/20 10:43:43;;;;;;;2.28;0.50;;;4.40;90.80;;;;;;5947200;24;20027;-80
2022/01/20 10:46:12;;;;;;;3.22;0.73;;;4.50;90.80;;;;;;5993724;23;20020;-78
2022/01/20 10:56:14;;;;;;;2.58;0.45;;;4.40;90.80;;;;;;6108903;23;20069;-79
2022/01/20 10:58:54;;;;;;;3.53;0.57;;;4.40;90.80;;;;;;6095789;23;20025;-79
2022/01/20 11:01:29;;;;;;;2.97;0.60;;;4.50;90.90;;;;;;6121784;23;20010;-79
2022/01/20 11:04:34;;;;;;;3.75;0.60;;;4.60;90.80;;;;;;6009666;23;20030;-79
2022/01/20 11:07:06;;;;;;;2.80;0.60;;;4.60;90.70;;;;;;6028018;23;20024;-77
2022/01/20 11:09:36;;;;;;;2.95;0.60;;;4.60;90.70;;;;;;6016307;23;20014;-80
2022/01/20 11:12:05;;;;;;;2.35;0.63;;;4.60;90.60;;;;;;6013559;23;20344;-84
2022/01/20 11:15:01;;;;;;;4.05;0.80;;;4.60;90.70;;;;;;5961514;23;20050;-83
2022/01/20 11:17:30;;;;;;;3.22;1.00;;;4.80;90.70;;;;;;5964357;23;20004;-77
2022/01/20 11:20:02;;;;;;;2.05;0.50;;;4.90;90.60;;;;;;6067166;23;20040;-81
2022/01/20 11:22:30;;;;;;;3.00;0.90;;;5.00;90.50;;;;;;6092103;23;20099;-79
2022/01/20 11:25:06;;;;;;;3.42;0.65;;;5.00;90.40;;;;;;6123336;23;20013;-79
2022/01/20 11:28:00;;;;;;;1.35;0.57;;;5.10;90.20;;;;;;6107521;23;20484;-80
2022/01/20 11:30:56;;;;;;;1.95;0.77;;;5.00;90.10;;;;;;6061881;23;20026;-80
2022/01/20 11:33:34;;;;;;;2.67;0.90;;;5.10;90.20;;;;;;6039625;23;20018;-79
2022/01/20 11:35:59;;;;;;;2.50;0.50;;;5.20;90.10;;;;;;6064043;23;20007;-80
2022/01/20 11:38:46;;;;;;;3.85;0.73;;;5.20;90.00;;;;;;6063775;23;20085;-79
2022/01/20 11:41:14;;;;;;;2.88;1.00;;;5.30;90.00;;;;;;6087572;23;20055;-79
2022/01/20 11:43:50;;;;;;;5.40;0.80;;;5.40;89.80;;;;;;6088544;23;20023;-81
2022/01/20 11:46:20;;;;;;;1.55;0.50;;;5.50;89.60;;;;;;6110617;23;20904;-80
2022/01/20 11:49:06;;;;;;;3.17;0.52;;;5.60;89.30;;;;;;6121692;23;20009;-79
2022/01/20 11:51:47;;;;;;;3.08;0.70;;;5.60;89.00;;;;;;6121974;23;20109;-76
2022/01/20 11:54:16;;;;;;;3.20;0.50;;;5.60;88.80;;;;;;6096602;23;20002;-77
2022/01/20 11:56:44;;;;;;;2.60;0.60;;;5.50;88.90;;;;;;6097402;23;20398;-77
2022/01/20 11:59:17;;;;;;;2.83;0.90;;;5.50;89.60;;;;;;6097446;23;20110;-77
2022/01/20 12:01:45;;;;;;;3.70;1.10;;;5.50;88.90;;;;;;6187304;23;20091;-79
2022/01/20 12:04:15;;;;;;;3.47;0.73;;;5.50;88.90;;;;;;6156355;23;20380;-78
2022/01/20 12:06:44;;;;;;;2.65;0.68;;;5.40;88.70;;;;;;6233639;22;20015;-76
2022/01/20 12:09:11;;;;;;;2.90;0.47;;;5.40;88.80;;;;;;6305317;22;20006;-79
2022/01/20 12:11:39;;;;;;;1.20;0.40;;;5.30;88.80;;;;;;6276175;22;20003;-77
2022/01/20 12:14:08;;;;;;;0.98;0.35;;;5.00;89.20;;;;;;6277801;22;20011;-77
2022/01/20 12:16:42;;;;;;;1.45;0.50;;;4.80;89.70;;;;;;6249748;22;20000;-79
2022/01/20 12:19:10;;;;;;;0.70;0.30;;;4.50;90.10;;;;;;6276797;22;20090;-79
2022/01/20 12:21:40;;;;;;;0.50;0.28;;;4.40;90.40;;;;;;6272225;22;20703;-79
2022/01/20 12:24:32;;;;;;;0.43;0.30;;;4.20;90.50;;;;;;6271772;22;20023;-80
2022/01/20 12:27:36;;;;;;;1.17;0.50;;;4.20;90.80;;;;;;6244430;22;20035;-80
2022/01/20 12:30:02;;;;;;;0.77;0.25;;;4.30;90.80;;;;;;6186607;23;20109;-79
2022/01/20 12:32:28;;;;;;;0.77;0.30;;;4.50;90.70;;;;;;6216336;23;20008;-78
2022/01/20 12:35:03;;;;;;;0.22;0.10;;;4.70;90.60;;;;;;6240449;23;20022;-76
2022/01/20 12:37:39;;;;;;;2.40;0.30;;;4.80;90.50;;;;;;6241002;23;20008;-76
2022/01/20 12:40:17;;;;;;;0.73;0.40;;;5.00;90.30;;;;;;6212734;23;20004;-77
2022/01/20 12:42:43;;;;;;;1.90;0.70;;;5.20;90.10;;;;;;6239931;23;20008;-77
2022/01/20 12:47:53;;;;;;;3.45;1.23;;;5.40;89.20;;;;;;6240831;23;20545;-76
2022/01/20 12:50:19;;;;;;;1.83;0.60;;;5.40;88.80;;;;;;6239061;23;20074;-76
2022/01/20 12:52:48;;;;;;;2.08;0.63;;;5.40;88.60;;;;;;6207766;23;20305;-77
2022/01/20 12:55:14;;;;;;;6.13;0.68;;;5.40;88.50;;;;;;6185847;23;20009;-76
2022/01/20 13:01:05;;;;;;;3.15;0.88;;;5.40;88.10;;;;;;6134866;23;20024;-79
2022/01/20 13:03:39;;;;;;;3.28;0.60;;;5.50;88.10;;;;;;6118678;23;20001;-79
2022/01/20 13:06:09;;;;;;;3.15;0.85;;;5.40;88.00;;;;;;6146989;23;20065;-79
2022/01/20 13:08:39;;;;;;;2.60;0.60;;;5.50;88.10;;;;;;6200926;23;20009;-78
2022/01/20 13:11:13;;;;;;;3.38;1.00;;;5.50;88.00;;;;;;6170620;23;20009;-78
2022/01/20 13:13:39;;;;;;;4.13;0.80;;;5.50;87.90;;;;;;6167931;23;19991;-78
2022/01/20 13:16:13;;;;;;;5.60;0.80;;;5.50;87.80;;;;;;6167996;23;20079;-77
2022/01/20 13:18:50;;;;;;;3.40;0.90;;;5.40;87.60;;;;;;6189532;23;20017;-79
2022/01/20 13:21:18;;;;;;;3.38;0.73;;;5.40;87.60;;;;;;6183857;23;20013;-79
2022/01/20 13:23:59;;;;;;;2.40;0.68;;;5.40;87.60;;;;;;6186405;23;20462;-78
2022/01/20 13:26:26;;;;;;;1.95;0.52;;;5.50;87.80;;;;;;6164852;23;20025;-74
2022/01/20 13:29:01;;;;;;;3.40;0.40;;;5.50;87.90;;;;;;6182633;23;20633;-78
2022/01/20 13:31:30;;;;;;;2.85;0.50;;;5.60;87.70;;;;;;6231995;22;20012;-79
2022/01/20 13:34:00;;;;;;;3.53;0.75;;;5.70;87.60;;;;;;6278254;22;20362;-78
2022/01/20 13:36:39;;;;;;;1.70;0.57;;;5.80;87.60;;;;;;6279124;22;20094;-80
2022/01/20 13:39:05;;;;;;;3.88;0.70;;;6.00;87.90;;;;;;6275515;22;20004;-77
2022/01/20 13:41:34;;;;;;;3.42;0.68;;;6.10;87.20;;;;;;6319256;22;20007;-80
2022/01/20 13:46:40;;;;;;;0.98;0.47;;;6.20;86.80;;;;;;6249455;23;20020;-78
2022/01/20 13:49:22;;;;;;;1.98;0.90;;;6.10;86.60;;;;;;6245340;23;20012;-83
2022/01/20 13:51:58;;;;;;;3.75;0.50;;;6.10;86.60;;;;;;6246715;23;20006;-79
2022/01/20 13:54:44;;;;;;;1.27;0.50;;;6.00;86.50;;;;;;6249607;23;20004;-81
2022/01/20 13:57:12;;;;;;;4.32;0.60;;;6.00;86.60;;;;;;6242607;23;20050;-80
2022/01/20 14:00:04;;;;;;;3.95;0.55;;;5.80;86.70;;;;;;6151695;23;20029;-79
2022/01/20 14:02:35;;;;;;;2.15;0.77;;;5.60;87.00;;;;;;6188368;23;20029;-79
2022/01/20 14:05:07;;;;;;;3.08;0.60;;;5.60;87.20;;;;;;6193691;23;20039;-80
2022/01/20 14:07:35;;;;;;;;;;;5.60;87.40;;;;;;6103565;23;20018;-81
2022/01/20 14:10:00;;;;;;;2.72;0.40;;;5.50;87.40;;;;;;6086417;23;19905;-81
2022/01/20 14:12:28;;;;;;;3.03;0.55;;;5.40;87.50;;;;;;6053637;23;20375;-82
2022/01/20 14:21:32;;;;;;;5.40;0.88;;;5.10;87.40;;;;;;5955216;24;20318;-81
2022/01/20 14:24:00;;;;;;;3.63;0.80;;;4.80;87.50;;;;;;5986155;23;20011;-80
2022/01/20 14:26:32;;;;;;;3.60;0.50;;;4.50;88.20;;;;;;5947942;23;20051;-78
2022/01/20 14:28:58;;;;;;;4.60;0.98;;;4.40;88.90;;;;;;5965637;23;20894;-78
2022/01/20 14:31:24;;;;;;;2.42;0.65;;;4.30;89.20;;;;;;5999108;23;20016;-78
2022/01/20 14:33:50;;;;;;;3.67;0.93;;;4.20;89.40;;;;;;5998367;23;20452;-80
2022/01/20 14:36:16;;;;;;;3.15;0.50;;;4.20;89.60;;;;;;5973155;23;20023;-79
2022/01/20 14:38:45;;;;;;;1.85;0.52;;;4.30;89.80;;;;;;5972053;23;20027;-81
2022/01/20 14:41:11;;;;;;;3.30;0.73;;;4.20;89.90;;;;;;5999688;23;20023;-79
2022/01/20 14:43:39;;;;;;;0.95;0.43;;;4.10;90.00;;;;;;5923464;24;20016;-79
2022/01/20 14:46:08;;;;;;;2.58;0.50;;;4.20;90.00;;;;;;6039369;23;20026;-80
2022/01/20 14:48:36;;;;;;;2.28;0.30;;;4.20;90.00;;;;;;6051874;23;20535;-80
2022/01/20 14:51:04;;;;;;;1.80;0.90;;;4.30;90.20;;;;;;6038509;23;20134;-79
2022/01/20 14:53:30;;;;;;;1.80;0.50;;;4.50;90.00;;;;;;6074765;23;20335;-78
2022/01/20 14:55:58;;;;;;;1.10;0.45;;;4.70;89.50;;;;;;6181016;23;20026;-79
2022/01/20 14:58:23;;;;;;;0.77;0.40;;;4.90;88.80;;;;;;6198249;23;20005;-79
2022/01/20 15:00:49;;;;;;;2.10;0.55;;;5.00;88.40;;;;;;6189280;23;20032;-78
2022/01/20 15:03:15;;;;;;;2.10;0.52;;;5.10;88.20;;;;;;6161561;23;20060;-78
2022/01/20 15:05:40;;;;;;;0.47;0.20;;;5.00;88.10;;;;;;6186836;23;20012;-78
2022/01/20 15:08:06;;;;;;;1.17;0.40;;;5.20;88.20;;;;;;6226509;23;20028;-77
2022/01/20 15:10:32;;;;;;;2.25;0.40;;;5.20;88.40;;;;;;6208013;23;20084;-77
2022/01/20 15:13:01;;;;;;;3.65;0.77;;;5.00;88.20;;;;;;6202745;23;20016;-77
2022/01/20 15:15:28;;;;;;;2.08;0.40;;;4.90;88.50;;;;;;6267762;22;20015;-78
2022/01/20 15:17:55;;;;;;;2.47;0.50;;;4.80;88.90;;;;;;6278338;22;20405;-77
2022/01/20 15:20:21;;;;;;;2.95;0.60;;;4.60;89.10;;;;;;6252002;22;20038;-77
2022/01/20 15:22:47;;;;;;;2.88;0.60;;;4.50;89.60;;;;;;6274064;22;20391;-77
2022/01/20 15:25:13;;;;;;;1.73;0.40;;;4.30;89.90;;;;;;6278011;22;20008;-77
2022/01/20 15:27:39;;;;;;;2.90;0.60;;;4.20;90.10;;;;;;6305008;22;20019;-77
2022/01/20 15:30:07;;;;;;;1.92;0.47;;;4.10;90.20;;;;;;6305474;22;20338;-77
2022/01/20 15:32:32;;;;;;;0.82;0.30;;;4.00;90.30;;;;;;6305625;22;20447;-77
2022/01/20 15:34:58;;;;;;;2.03;0.60;;;4.00;90.40;;;;;;6276966;22;20000;-77
2022/01/20 15:37:24;;;;;;;1.20;0.40;;;3.90;90.40;;;;;;6252492;22;20019;-77
2022/01/20 15:39:50;;;;;;;2.20;0.60;;;3.90;90.50;;;;;;6306164;22;20003;-77
2022/01/20 15:42:15;;;;;;;1.08;0.28;;;3.90;90.50;;;;;;6277453;22;20002;-77
2022/01/20 15:44:41;;;;;;;1.02;0.30;;;3.90;90.60;;;;;;6303378;22;20415;-77
2022/01/20 15:47:07;;;;;;;1.40;0.40;;;3.80;90.60;;;;;;6306068;22;20015;-77
2022/01/20 15:49:33;;;;;;;1.33;0.30;;;3.80;90.60;;;;;;6277334;22;20023;-77
2022/01/20 15:51:59;;;;;;;0.65;0.20;;;3.80;90.70;;;;;;6305645;22;20427;-77
2022/01/20 15:54:25;;;;;;;2.13;0.60;;;3.80;90.70;;;;;;6305584;22;19999;-77
2022/01/20 15:56:50;;;;;;;2.35;0.40;;;3.80;90.70;;;;;;6278188;22;20070;-77
2022/01/20 15:59:16;;;;;;;2.63;0.43;;;3.90;90.70;;;;;;6305514;22;20006;-77
2022/01/20 16:01:42;;;;;;;1.25;0.93;;;3.80;90.70;;;;;;6305449;22;20003;-77
2022/01/20 16:04:09;;;;;;;1.90;0.50;;;3.80;90.70;;;;;;6251215;22;20015;-77